createdAt,value
2022-08-07T00:00:24.719Z,4.22
2022-08-07T00:02:51.223Z,4.05
2022-08-07T00:05:20.600Z,3.85
2022-08-07T00:07:47.167Z,3.55
2022-08-07T00:10:26.274Z,2.72
2022-08-07T00:13:00.572Z,4.03
2022-08-07T00:15:38.002Z,3.15
2022-08-07T00:18:19.918Z,2.38
2022-08-07T00:20:51.312Z,3.97
2022-08-07T00:23:18.209Z,4.10
2022-08-07T00:25:58.974Z,3.83
2022-08-07T00:28:33.646Z,4.93
2022-08-07T00:31:05.869Z,6.10
2022-08-07T00:33:33.483Z,5.60
2022-08-07T00:36:00.254Z,2.65
2022-08-07T00:38:31.183Z,3.90
2022-08-07T00:40:58.110Z,2.97
2022-08-07T00:46:10.919Z,4.28
2022-08-07T00:48:37.450Z,4.10
2022-08-07T00:51:09.604Z,3.03
2022-08-07T00:53:39.111Z,3.15
2022-08-07T00:56:17.821Z,2.30
2022-08-07T00:58:47.056Z,2.58
2022-08-07T01:01:16.763Z,2.55
2022-08-07T01:03:56.981Z,2.70
2022-08-07T01:06:30.270Z,2.45
2022-08-07T01:08:58.539Z,3.72
2022-08-07T01:12:10.025Z,3.10
2022-08-07T01:14:16.557Z,4.50
2022-08-07T01:16:47.244Z,4.47
2022-08-07T01:19:18.852Z,5.57
2022-08-07T01:21:53.216Z,3.80
2022-08-07T01:24:22.302Z,2.75
2022-08-07T01:26:51.757Z,3.63
2022-08-07T01:29:21.950Z,2.50
2022-08-07T01:31:51.388Z,3.47
2022-08-07T01:34:18.908Z,5.22
2022-08-07T01:36:52.953Z,4.50
2022-08-07T01:39:39.653Z,3.78
2022-08-07T01:42:38.949Z,2.92
2022-08-07T01:45:00.262Z,3.20
2022-08-07T01:48:19.710Z,4.50
2022-08-07T01:50:14.443Z,3.10
2022-08-07T01:52:49.702Z,4.40
2022-08-07T01:55:24.216Z,2.25
2022-08-07T01:58:01.184Z,4.70
2022-08-07T02:00:35.604Z,2.80
2022-08-07T02:03:21.233Z,3.60
2022-08-07T02:06:02.515Z,4.25
2022-08-07T02:08:54.544Z,2.78
2022-08-07T02:12:01.442Z,3.63
2022-08-07T02:14:35.428Z,2.85
2022-08-07T02:16:59.468Z,5.40
2022-08-07T02:20:05.006Z,5.18
2022-08-07T02:22:13.101Z,3.33
2022-08-07T02:24:45.637Z,3.20
2022-08-07T02:27:16.847Z,5.35
2022-08-07T02:29:54.294Z,2.80
2022-08-07T02:32:29.914Z,3.58
2022-08-07T02:34:57.967Z,3.95
2022-08-07T02:37:27.492Z,4.28
2022-08-07T02:40:29.769Z,4.03
2022-08-07T02:42:51.130Z,3.28
2022-08-07T02:45:57.606Z,5.25
2022-08-07T02:48:10.016Z,3.33
2022-08-07T02:50:42.345Z,4.25
2022-08-07T02:53:13.316Z,4.05
2022-08-07T02:56:03.198Z,7.05
2022-08-07T02:58:33.329Z,4.75
2022-08-07T03:01:02.171Z,4.30
2022-08-07T03:03:49.227Z,4.10
2022-08-07T03:06:25.877Z,3.50
2022-08-07T03:09:04.803Z,4.00
2022-08-07T03:11:38.408Z,4.93
2022-08-07T03:14:07.701Z,4.78
2022-08-07T03:16:34.907Z,6.25
2022-08-07T03:19:02.485Z,4.18
2022-08-07T03:21:33.142Z,4.93
2022-08-07T03:24:18.349Z,4.78
2022-08-07T03:26:53.555Z,4.10
2022-08-07T03:29:27.593Z,3.05
2022-08-07T03:31:55.262Z,3.92
2022-08-07T03:34:22.920Z,5.65
2022-08-07T03:36:58.124Z,4.28
2022-08-07T03:40:00.140Z,4.85
2022-08-07T03:42:12.680Z,6.63
2022-08-07T03:44:40.131Z,4.22
2022-08-07T03:47:13.679Z,7.88
2022-08-07T03:49:53.330Z,5.07
2022-08-07T03:52:26.623Z,5.57
2022-08-07T03:55:07.423Z,3.70
2022-08-07T03:59:06.835Z,3.90
2022-08-07T04:00:29.122Z,6.43
2022-08-07T04:02:57.938Z,6.25
2022-08-07T04:05:40.292Z,5.15
2022-08-07T04:08:11.973Z,5.35
2022-08-07T04:10:40.173Z,4.38
2022-08-07T04:13:15.196Z,4.82
2022-08-07T04:15:43.445Z,6.53
2022-08-07T04:18:58.220Z,5.90
2022-08-07T04:21:00.786Z,5.80
2022-08-07T04:23:43.348Z,6.85
2022-08-07T04:26:14.486Z,5.63
2022-08-07T04:28:44.237Z,6.43
2022-08-07T04:31:20.093Z,6.40
2022-08-07T04:33:47.402Z,4.88
2022-08-07T04:36:22.688Z,4.28
2022-08-07T04:38:52.812Z,4.90
2022-08-07T04:41:19.604Z,6.03
2022-08-07T04:44:14.463Z,3.80
2022-08-07T04:47:04.041Z,3.97
2022-08-07T04:50:03.476Z,5.60
2022-08-07T04:52:50.991Z,6.75
2022-08-07T04:58:12.789Z,6.25
2022-08-07T04:58:47.296Z,5.03
2022-08-07T05:01:19.471Z,5.55
2022-08-07T05:04:06.724Z,4.53
2022-08-07T05:06:57.508Z,6.65
2022-08-07T05:09:46.665Z,5.93
2022-08-07T05:12:27.181Z,4.13
2022-08-07T05:15:04.069Z,4.30
2022-08-07T05:17:52.068Z,3.55
2022-08-07T05:20:25.720Z,3.95
2022-08-07T05:22:57.021Z,3.92
2022-08-07T05:25:36.650Z,4.55
2022-08-07T05:28:20.612Z,4.07
2022-08-07T05:30:52.235Z,4.05
2022-08-07T05:33:19.773Z,4.20
2022-08-07T05:35:48.747Z,4.35
2022-08-07T05:38:58.029Z,4.75
2022-08-07T05:41:05.515Z,4.18
2022-08-07T05:43:49.519Z,5.22
2022-08-07T05:46:29.467Z,6.35
2022-08-07T05:48:59.127Z,5.68
2022-08-07T05:51:31.431Z,6.07
2022-08-07T05:54:13.413Z,6.68
2022-08-07T05:56:47.826Z,7.53
2022-08-07T05:59:21.908Z,6.65
2022-08-07T06:01:55.754Z,6.80
2022-08-07T06:04:26.319Z,6.28
2022-08-07T06:07:03.504Z,7.38
2022-08-07T06:09:56.639Z,6.22
2022-08-07T06:12:27.835Z,8.95
2022-08-07T06:15:05.667Z,7.35
2022-08-07T06:17:37.394Z,6.30
2022-08-07T06:20:05.996Z,8.27
2022-08-07T06:22:40.624Z,7.60
2022-08-07T06:25:22.783Z,5.68
2022-08-07T06:28:01.157Z,6.88
2022-08-07T06:30:36.195Z,6.53
2022-08-07T06:33:15.958Z,7.70
2022-08-07T06:35:47.964Z,5.95
2022-08-07T06:38:30.344Z,8.07
2022-08-07T06:40:59.048Z,7.60
2022-08-07T06:43:28.375Z,8.13
2022-08-07T06:46:12.629Z,7.15
2022-08-07T06:48:42.100Z,10.60
2022-08-07T06:51:30.965Z,8.07
2022-08-07T06:55:29.986Z,7.88
2022-08-07T06:56:53.976Z,9.18
2022-08-07T07:00:12.871Z,8.98
2022-08-07T07:02:48.656Z,8.80
2022-08-07T07:05:07.090Z,8.27
2022-08-07T07:07:58.999Z,9.00
2022-08-07T07:10:29.572Z,8.85
2022-08-07T07:13:02.485Z,9.02
2022-08-07T07:15:32.443Z,7.53
2022-08-07T07:18:19.154Z,8.05
2022-08-07T07:21:13.562Z,8.35
2022-08-07T07:24:09.211Z,10.00
2022-08-07T07:26:37.160Z,6.53
2022-08-07T07:29:56.397Z,5.97
2022-08-07T07:31:56.016Z,6.55
2022-08-07T07:34:30.863Z,8.18
2022-08-07T07:37:14.419Z,6.95
2022-08-07T07:39:54.614Z,8.43
2022-08-07T07:42:32.930Z,5.65
2022-08-07T07:45:01.467Z,5.70
2022-08-07T07:47:28.006Z,9.15
2022-08-07T07:50:34.299Z,5.45
2022-08-07T07:52:43.665Z,4.20
2022-08-07T07:55:14.337Z,5.43
2022-08-07T07:57:50.554Z,4.40
2022-08-07T08:00:29.201Z,7.07
2022-08-07T08:03:01.291Z,4.80
2022-08-07T08:05:50.977Z,3.67
2022-08-07T08:08:34.704Z,3.92
2022-08-07T08:11:08.084Z,3.40
2022-08-07T08:13:36.646Z,3.70
2022-08-07T08:18:36.876Z,5.90
2022-08-07T08:20:16.267Z,4.30
2022-08-07T08:22:15.990Z,3.83
2022-08-07T08:25:11.467Z,9.00
2022-08-07T08:27:56.380Z,5.85
2022-08-07T08:30:29.006Z,3.85
2022-08-07T08:32:58.466Z,4.15
2022-08-07T08:35:28.700Z,4.93
2022-08-07T08:37:59.254Z,5.00
2022-08-07T08:40:32.327Z,6.57
2022-08-07T08:43:04.777Z,4.15
2022-08-07T08:45:58.324Z,4.82
2022-08-07T08:48:39.927Z,5.50
2022-08-07T08:51:22.456Z,4.15
2022-08-07T08:54:30.743Z,3.78
2022-08-07T08:57:02.296Z,3.70
2022-08-07T08:59:41.727Z,4.05
2022-08-07T09:02:34.729Z,4.93
2022-08-07T09:05:03.760Z,4.17
2022-08-07T09:07:46.189Z,4.60
2022-08-07T09:10:21.592Z,5.63
2022-08-07T09:12:53.269Z,4.90
2022-08-07T09:16:23.194Z,4.55
2022-08-07T09:18:41.403Z,3.92
2022-08-07T09:21:33.751Z,5.85
2022-08-07T09:24:31.055Z,3.10
2022-08-07T09:27:27.358Z,5.13
2022-08-07T09:30:08.670Z,6.03
2022-08-07T09:32:49.787Z,4.80
2022-08-07T09:36:05.245Z,4.13
2022-08-07T09:38:31.064Z,6.10
2022-08-07T09:41:15.446Z,3.10
2022-08-07T09:44:19.982Z,3.40
2022-08-07T09:47:50.386Z,4.32
2022-08-07T09:50:22.701Z,3.33
2022-08-07T09:53:00.821Z,3.60
2022-08-07T09:56:03.193Z,4.30
2022-08-07T09:58:48.838Z,4.45
2022-08-07T10:01:53.731Z,4.80
2022-08-07T10:04:45.826Z,4.22
2022-08-07T10:07:31.694Z,3.60
2022-08-07T10:10:22.797Z,4.38
2022-08-07T10:13:10.945Z,3.75
2022-08-07T10:16:01.685Z,2.92
2022-08-07T10:18:50.391Z,2.95
2022-08-07T10:22:12.633Z,4.88
2022-08-07T10:24:29.486Z,5.00
2022-08-07T10:27:20.360Z,5.75
2022-08-07T10:30:12.103Z,4.47
2022-08-07T10:32:59.497Z,3.75
2022-08-07T10:35:27.256Z,3.63
2022-08-07T10:38:35.914Z,4.30
2022-08-07T10:41:46.896Z,3.50
2022-08-07T10:47:01.934Z,3.08
2022-08-07T10:49:49.721Z,3.13
2022-08-07T10:52:31.877Z,5.20
2022-08-07T10:55:26.603Z,4.20
2022-08-07T10:58:00.443Z,4.75
2022-08-07T11:00:36.241Z,4.40
2022-08-07T11:03:10.981Z,3.28
2022-08-07T11:05:52.356Z,3.65
2022-08-07T11:08:56.600Z,3.03
2022-08-07T11:11:29.616Z,4.47
2022-08-07T11:14:44.698Z,4.63
2022-08-07T11:17:07.204Z,3.45
2022-08-07T11:19:45.061Z,2.30
2022-08-07T11:22:26.573Z,3.92
2022-08-07T11:25:06.483Z,1.90
2022-08-07T11:28:02.855Z,3.30
2022-08-07T11:30:52.391Z,2.85
2022-08-07T11:36:00.305Z,4.25
2022-08-07T11:38:30.561Z,1.95
2022-08-07T11:41:18.223Z,3.65
2022-08-07T11:44:12.769Z,5.57
2022-08-07T11:47:03.847Z,1.50
2022-08-07T11:50:32.990Z,2.72
2022-08-07T11:53:15.196Z,3.85
2022-08-07T11:56:15.604Z,2.33
2022-08-07T11:58:56.236Z,2.42
2022-08-07T12:01:59.591Z,3.15
2022-08-07T12:04:34.034Z,3.53
2022-08-07T12:07:13.994Z,6.53
2022-08-07T12:09:53.751Z,2.22
2022-08-07T12:12:28.717Z,2.35
2022-08-07T12:15:01.953Z,2.47
2022-08-07T12:17:59.011Z,2.72
2022-08-07T12:20:38.023Z,4.90
2022-08-07T12:24:05.479Z,2.20
2022-08-07T12:26:23.565Z,3.47
2022-08-07T12:31:52.503Z,2.03
2022-08-07T12:34:25.888Z,3.05
2022-08-07T12:36:53.812Z,5.95
2022-08-07T12:39:43.751Z,2.20
2022-08-07T12:42:08.881Z,3.42
2022-08-07T12:44:44.908Z,1.92
2022-08-07T12:47:21.871Z,1.85
2022-08-07T12:50:04.913Z,2.30
2022-08-07T12:52:57.278Z,6.20
2022-08-07T12:55:41.408Z,3.17
2022-08-07T12:58:19.901Z,3.17
2022-08-07T13:00:56.673Z,2.20
2022-08-07T13:03:54.694Z,3.53
2022-08-07T13:06:27.883Z,3.17
2022-08-07T13:10:19.924Z,2.67
2022-08-07T13:12:09.931Z,2.38
2022-08-07T13:14:56.759Z,4.32
2022-08-07T13:17:40.056Z,4.07
2022-08-07T13:20:10.923Z,2.40
2022-08-07T13:22:58.210Z,4.55
2022-08-07T13:25:54.172Z,3.50
2022-08-07T13:28:46.444Z,2.65
2022-08-07T13:31:20.956Z,2.05
2022-08-07T13:34:34.251Z,3.20
2022-08-07T13:36:48.977Z,2.75
2022-08-07T13:40:33.419Z,3.08
2022-08-07T13:42:24.905Z,2.13
2022-08-07T13:45:20.942Z,3.65
2022-08-07T13:48:06.132Z,2.85
2022-08-07T13:50:35.064Z,3.53
2022-08-07T13:53:21.704Z,2.45
2022-08-07T13:55:54.721Z,4.10
2022-08-07T14:01:27.245Z,2.90
2022-08-07T14:04:05.318Z,2.97
2022-08-07T14:06:35.331Z,3.95
2022-08-07T14:09:04.559Z,4.03
2022-08-07T14:12:00.437Z,4.35
2022-08-07T14:16:54.517Z,4.55
2022-08-07T14:20:40.693Z,3.67
2022-08-07T14:22:34.792Z,2.83
2022-08-07T14:25:09.178Z,5.93
2022-08-07T14:28:12.468Z,3.78
2022-08-07T14:30:33.136Z,4.78
2022-08-07T14:33:01.707Z,4.80
2022-08-07T14:35:45.158Z,3.38
2022-08-07T14:38:26.134Z,4.45
2022-08-07T14:40:59.105Z,3.85
2022-08-07T14:46:18.612Z,8.45
2022-08-07T14:48:58.457Z,4.38
2022-08-07T14:52:05.048Z,4.50
2022-08-07T14:54:31.067Z,7.70
2022-08-07T14:57:02.244Z,7.40
2022-08-07T15:00:05.541Z,3.22
2022-08-07T15:05:20.373Z,3.17
2022-08-07T15:07:51.858Z,4.47
2022-08-07T15:13:23.326Z,3.20
2022-08-07T15:15:56.372Z,5.30
2022-08-07T15:18:34.824Z,4.63
2022-08-07T15:21:26.587Z,4.05
2022-08-07T15:25:13.621Z,3.58
2022-08-07T15:26:47.785Z,2.45
2022-08-07T15:30:04.544Z,2.90
2022-08-07T15:32:04.867Z,3.63
2022-08-07T15:34:36.205Z,3.05
2022-08-07T15:37:06.872Z,5.47
2022-08-07T15:39:56.840Z,3.70
2022-08-07T15:42:47.825Z,3.35
2022-08-07T15:45:20.830Z,5.75
2022-08-07T15:48:00.807Z,3.00
2022-08-07T15:50:37.953Z,3.30
2022-08-07T15:53:52.935Z,3.55
2022-08-07T15:56:24.115Z,3.53
2022-08-07T15:58:53.388Z,3.28
2022-08-07T16:01:23.967Z,3.85
2022-08-07T16:04:14.836Z,7.05
2022-08-07T16:06:50.824Z,7.65
2022-08-07T16:11:49.261Z,6.10
2022-08-07T16:14:19.160Z,5.50
2022-08-07T16:16:57.154Z,6.47
2022-08-07T16:19:41.975Z,6.13
2022-08-07T16:22:36.438Z,6.47
2022-08-07T16:25:54.449Z,8.15
2022-08-07T16:30:08.533Z,4.47
2022-08-07T16:31:51.216Z,7.47
2022-08-07T16:34:27.877Z,3.58
2022-08-07T16:38:05.759Z,5.65
2022-08-07T16:40:12.860Z,4.32
2022-08-07T16:43:16.287Z,4.53
2022-08-07T16:46:47.379Z,3.63
2022-08-07T16:48:53.722Z,5.32
2022-08-07T16:51:57.611Z,3.35
2022-08-07T16:54:33.030Z,3.53
2022-08-07T16:57:28.797Z,4.07
2022-08-07T17:00:12.026Z,4.70
2022-08-07T17:03:05.966Z,3.92
2022-08-07T17:06:01.710Z,3.35
2022-08-07T17:09:08.764Z,2.63
2022-08-07T17:12:02.045Z,4.35
2022-08-07T17:14:37.800Z,3.70
2022-08-07T17:17:08.360Z,3.83
2022-08-07T17:20:02.990Z,9.13
2022-08-07T17:22:38.231Z,5.28
2022-08-07T17:25:45.691Z,4.35
2022-08-07T17:28:19.442Z,7.30
2022-08-07T17:30:58.320Z,4.53
2022-08-07T17:34:08.496Z,3.60
2022-08-07T17:36:28.423Z,4.07
2022-08-07T17:39:15.416Z,4.97
2022-08-07T17:42:04.786Z,4.22
2022-08-07T17:44:50.157Z,3.75
2022-08-07T17:47:42.043Z,4.75
2022-08-07T17:50:16.616Z,3.67
2022-08-07T17:53:52.588Z,4.70
2022-08-07T17:56:28.721Z,3.20
2022-08-07T17:59:02.441Z,5.50
2022-08-07T18:01:39.129Z,3.65
2022-08-07T18:04:22.636Z,4.32
2022-08-07T18:10:04.459Z,4.25
2022-08-07T18:12:28.591Z,5.50
2022-08-07T18:15:01.911Z,10.10
2022-08-07T18:18:47.642Z,5.60
2022-08-07T18:21:08.598Z,7.72
2022-08-07T18:23:56.167Z,4.50
2022-08-07T18:26:32.159Z,4.53
2022-08-07T18:29:04.236Z,4.38
2022-08-07T18:31:38.871Z,4.55
2022-08-07T18:34:36.992Z,6.20
2022-08-07T18:37:09.425Z,4.85
2022-08-07T18:40:08.173Z,4.65
2022-08-07T18:42:34.953Z,4.03
2022-08-07T18:45:43.995Z,4.38
2022-08-07T18:48:05.460Z,4.07
2022-08-07T18:50:40.803Z,5.28
2022-08-07T18:53:36.667Z,4.32
2022-08-07T18:56:06.196Z,5.95
2022-08-07T18:58:51.809Z,4.18
2022-08-07T19:02:18.091Z,4.88
2022-08-07T19:04:37.436Z,5.78
2022-08-07T19:07:35.058Z,5.85
2022-08-07T19:10:06.309Z,4.60
2022-08-07T19:12:48.698Z,5.70
2022-08-07T19:16:04.666Z,5.13
2022-08-07T19:18:34.678Z,6.07
2022-08-07T19:21:09.060Z,5.65
2022-08-07T19:23:59.052Z,6.22
2022-08-07T19:27:01.706Z,6.43
2022-08-07T19:32:18.789Z,8.20
2022-08-07T19:35:01.235Z,5.15
2022-08-07T19:37:55.664Z,8.13
2022-08-07T19:40:31.182Z,6.95
2022-08-07T19:43:00.274Z,5.10
2022-08-07T19:46:04.977Z,3.38
2022-08-07T19:48:24.304Z,4.53
2022-08-07T19:50:59.684Z,7.40
2022-08-07T19:54:33.483Z,7.32
2022-08-07T19:57:52.282Z,9.85
2022-08-07T19:59:04.736Z,5.68
2022-08-07T20:01:55.879Z,4.93
2022-08-07T20:04:31.303Z,6.10
2022-08-07T20:07:05.406Z,6.97
2022-08-07T20:10:35.306Z,6.78
2022-08-07T20:12:34.902Z,4.93
2022-08-07T20:15:03.705Z,6.53
2022-08-07T20:17:31.500Z,5.00
2022-08-07T20:20:04.439Z,5.18
2022-08-07T20:22:35.897Z,5.63
2022-08-07T20:25:06.163Z,5.10
2022-08-07T20:27:47.669Z,5.57
2022-08-07T20:30:22.535Z,5.93
2022-08-07T20:32:50.258Z,5.32
2022-08-07T20:35:25.270Z,7.70
2022-08-07T20:37:58.819Z,4.87
2022-08-07T20:40:31.183Z,5.43
2022-08-07T20:43:00.928Z,7.32
2022-08-07T20:45:33.185Z,5.35
2022-08-07T20:48:25.901Z,9.05
2022-08-07T20:51:00.124Z,8.65
2022-08-07T20:54:04.172Z,6.90
2022-08-07T20:56:25.719Z,9.10
2022-08-07T20:58:53.477Z,7.45
2022-08-07T21:01:22.142Z,7.68
2022-08-07T21:04:19.464Z,7.53
2022-08-07T21:06:39.384Z,7.57
2022-08-07T21:09:15.159Z,7.38
2022-08-07T21:11:49.943Z,7.97
2022-08-07T21:18:00.613Z,6.35
2022-08-07T21:19:51.509Z,5.47
2022-08-07T21:22:35.252Z,5.93
2022-08-07T21:25:11.987Z,6.35
2022-08-07T21:28:02.041Z,6.22
2022-08-07T21:30:43.075Z,7.47
2022-08-07T21:33:14.413Z,6.13
2022-08-07T21:36:04.998Z,12.07
2022-08-07T21:38:49.786Z,7.35
2022-08-07T21:41:16.479Z,6.03
2022-08-07T21:43:56.740Z,7.20
2022-08-07T21:46:40.904Z,5.40
2022-08-07T21:49:29.867Z,5.63
2022-08-07T21:52:11.554Z,6.65
2022-08-07T21:54:50.695Z,10.70
2022-08-07T21:57:31.564Z,8.20
2022-08-07T22:00:23.033Z,7.45
2022-08-07T22:03:06.282Z,5.55
2022-08-07T22:05:46.064Z,7.55
2022-08-07T22:08:18.664Z,7.03
2022-08-07T22:10:49.709Z,7.95
2022-08-07T22:13:16.742Z,7.32
2022-08-07T22:16:38.870Z,6.68
2022-08-07T22:18:54.937Z,6.30
2022-08-07T22:21:23.995Z,5.95
2022-08-07T22:24:19.698Z,11.75
2022-08-07T22:26:51.248Z,8.52
2022-08-07T22:29:38.010Z,8.35
2022-08-07T22:32:11.361Z,9.40
2022-08-07T22:34:53.048Z,7.80
2022-08-07T22:38:03.337Z,7.22
2022-08-07T22:40:31.941Z,6.85
2022-08-07T22:43:08.855Z,8.13
2022-08-07T22:46:40.881Z,9.30
2022-08-07T22:48:56.117Z,7.85
2022-08-07T22:51:43.258Z,7.45
2022-08-07T22:54:16.195Z,7.70
2022-08-07T22:57:02.923Z,8.20
2022-08-07T22:59:35.112Z,8.82
2022-08-07T23:02:01.461Z,7.50
2022-08-07T23:04:56.785Z,9.60
2022-08-07T23:07:42.391Z,8.35
2022-08-07T23:10:37.304Z,6.50
2022-08-07T23:16:05.824Z,6.45
2022-08-07T23:19:13.673Z,8.27
2022-08-07T23:21:43.939Z,6.68
2022-08-07T23:24:17.046Z,8.32
2022-08-07T23:26:56.270Z,7.78
2022-08-07T23:30:35.803Z,9.55
2022-08-07T23:35:10.896Z,6.78
2022-08-07T23:38:01.256Z,8.27
2022-08-07T23:40:39.809Z,11.27
2022-08-07T23:43:16.437Z,7.18
2022-08-07T23:46:03.164Z,9.25
2022-08-07T23:48:40.727Z,7.28
2022-08-07T23:53:06.514Z,6.32
2022-08-07T23:54:19.849Z,7.35
2022-08-07T23:57:09.125Z,8.52
